RAG weather

Raglan Airfield
Waikato Region, New Zealand

Public forecast

Using degrees Celsius for public forecast. Weather courtesy of forecast.io.

METAR (pilot weather report)

Closest report is Auckland International Airport, 47.9 nm (88.8 km) N. Retrieved 2019/07/21 22:30 UTC (0 seconds ago):

NZAA 212230Z AUTO 16002KT 9999 NCD 12/10 Q1015 NOSIG

TAF (pilot weather forecast)

Closest forecast is Auckland International Airport, 47.9 nm (88.8 km) N. Retrieved 2019/07/21 18:06 UTC (4 hours ago):

TAF NZAA 211703Z 2118/2218 VRB02KT 9999 -SHRA FEW025 SCT030 PROB30 2118/2123 0500 FG